Time;durP1;ratioP1;P1;durP2;ratioP2;P2;SDS_P1;SDS_P2;PMS_P1;PMS_P2;Temp;Humidity;BMP_temperature;BMP_pressure;BME280_temperature;BME280_humidity;BME280_pressure;Samples;Min_cycle;Max_cycle;Signal;HPM_P1;HPM_P2
2023/07/01 00:02:22;;;;;;;9.70;8.70;;;;;;;20.17;79.25;99366.86;130035;1264;106521;-78
2023/07/01 00:05:28;;;;;;;9.80;8.90;;;;;;;20.16;79.32;99366.11;130062;1263;107555;-78
2023/07/01 00:08:33;;;;;;;12.10;10.80;;;;;;;20.15;79.42;99362.80;130189;1263;105909;-79
2023/07/01 00:11:39;;;;;;;12.20;11.10;;;;;;;20.13;79.49;99366.64;130025;1264;107579;-77
2023/07/01 00:14:45;;;;;;;11.80;10.60;;;;;;;20.09;79.64;99361.73;130022;1264;107659;-77
2023/07/01 00:17:50;;;;;;;10.60;9.60;;;;;;;20.06;79.92;99357.95;130037;1263;107529;-77
2023/07/01 00:20:56;;;;;;;11.40;10.30;;;;;;;20.03;80.00;99360.52;130038;1261;108316;-77
2023/07/01 00:24:02;;;;;;;10.60;9.60;;;;;;;20.04;80.10;99356.86;130071;1261;107605;-77
2023/07/01 00:27:08;;;;;;;11.50;10.30;;;;;;;20.03;80.17;99358.41;130092;1264;106824;-77
2023/07/01 00:30:14;;;;;;;11.10;10.00;;;;;;;19.98;80.32;99359.67;130174;1264;107552;-79
2023/07/01 00:33:20;;;;;;;9.80;8.80;;;;;;;19.97;80.40;99361.63;130091;1264;106499;-79
2023/07/01 00:36:25;;;;;;;10.50;9.40;;;;;;;19.95;80.41;99358.89;130068;1263;107539;-79
2023/07/01 00:39:31;;;;;;;11.40;10.20;;;;;;;19.95;80.55;99358.14;130025;1264;228385;-80
2023/07/01 00:42:36;;;;;;;10.60;9.60;;;;;;;19.94;80.54;99363.58;130149;1264;107498;-77
2023/07/01 00:45:42;;;;;;;10.40;9.40;;;;;;;19.95;80.58;99369.05;129992;1264;106114;-77
2023/07/01 00:48:48;;;;;;;9.80;8.90;;;;;;;19.93;80.65;99365.06;130002;1265;107574;-76
2023/07/01 00:51:55;;;;;;;10.50;9.60;;;;;;;19.91;80.87;99367.96;130164;1264;107261;-77
2023/07/01 00:55:01;;;;;;;10.90;9.90;;;;;;;19.93;80.90;99368.85;130227;1264;107486;-79
2023/07/01 00:58:08;;;;;;;10.30;9.40;;;;;;;19.93;80.94;99368.81;130079;1264;107514;-76
2023/07/01 01:01:18;;;;;;;10.60;9.30;;;;;;;19.91;81.01;99365.24;130006;1265;107583;-76
2023/07/01 01:04:33;;;;;;;11.10;9.00;;;;;;;19.88;81.05;99359.98;130025;1261;107562;-76
2023/07/01 01:07:47;;;;;;;10.40;9.20;;;;;;;19.84;81.00;99360.75;130144;1260;107450;-76
2023/07/01 01:10:55;;;;;;;10.90;9.80;;;;;;;19.84;81.11;99359.71;130062;1259;107425;-77
2023/07/01 01:14:04;;;;;;;10.90;9.90;;;;;;;19.78;81.17;99356.38;130154;1263;107559;-76
2023/07/01 01:17:13;;;;;;;10.50;9.30;;;;;;;19.72;81.31;99351.81;130179;1264;107425;-77
2023/07/01 01:20:23;;;;;;;10.60;8.80;;;;;;;19.69;81.40;99349.34;130223;1264;106693;-76
2023/07/01 01:23:33;;;;;;;11.70;9.10;;;;;;;19.69;81.46;99345.27;130175;1264;107530;-77
2023/07/01 01:26:44;;;;;;;10.90;9.80;;;;;;;19.70;81.48;99344.49;130122;1262;107932;-77
2023/07/01 01:29:50;;;;;;;12.20;10.40;;;;;;;19.70;81.46;99340.11;130147;1264;106718;-76
2023/07/01 01:32:56;;;;;;;10.80;9.70;;;;;;;19.69;81.36;99338.33;130075;1262;107678;-77
2023/07/01 01:36:08;;;;;;;9.70;8.80;;;;;;;19.63;81.44;99339.77;130113;1259;107592;-76
2023/07/01 01:39:19;;;;;;;9.90;8.90;;;;;;;19.56;81.57;99339.66;130027;1270;107566;-77
2023/07/01 01:42:31;;;;;;;10.00;9.00;;;;;;;19.54;81.58;99336.48;130029;1263;107546;-77
2023/07/01 01:45:37;;;;;;;10.60;9.60;;;;;;;19.55;81.80;99337.16;130066;1271;107242;-76
2023/07/01 01:48:43;;;;;;;12.10;9.80;;;;;;;19.57;81.70;99343.20;130159;1265;107290;-79
2023/07/01 01:51:51;;;;;;;10.50;8.60;;;;;;;19.56;81.80;99342.48;130100;1263;105614;-77
2023/07/01 01:54:59;;;;;;;9.70;8.60;;;;;;;19.55;81.67;99347.54;130104;1263;107545;-78
2023/07/01 01:58:05;;;;;;;10.10;8.40;;;;;;;19.53;81.83;99345.77;130086;1261;107290;-77
2023/07/01 02:01:10;;;;;;;10.00;9.00;;;;;;;19.54;81.86;99342.48;130122;1259;106592;-77
2023/07/01 02:04:16;;;;;;;10.20;9.10;;;;;;;19.54;81.83;99343.09;130070;1264;106764;-77
2023/07/01 02:07:21;;;;;;;9.70;8.80;;;;;;;19.53;81.78;99339.48;130142;1259;107294;-77
2023/07/01 02:10:27;;;;;;;10.00;8.20;;;;;;;19.50;81.87;99339.74;130136;1264;107558;-77
2023/07/01 02:13:32;;;;;;;10.30;8.30;;;;;;;19.46;81.96;99336.23;130213;1261;107568;-77
2023/07/01 02:16:38;;;;;;;9.60;8.30;;;;;;;19.43;81.80;99337.41;130163;1262;107451;-76
2023/07/01 02:19:44;;;;;;;9.30;8.30;;;;;;;19.38;81.95;99332.70;130034;1265;107534;-76
2023/07/01 02:22:49;;;;;;;9.60;8.50;;;;;;;19.37;82.01;99330.60;130051;1263;107567;-77
2023/07/01 02:25:55;;;;;;;8.80;8.00;;;;;;;19.35;81.96;99323.10;130033;1259;106553;-77
2023/07/01 02:29:00;;;;;;;11.70;9.20;;;;;;;19.31;81.91;99323.42;130055;1264;107498;-77
2023/07/01 02:32:07;;;;;;;9.40;8.50;;;;;;;19.26;82.12;99321.26;130010;1259;107493;-77
2023/07/01 02:35:13;;;;;;;9.40;8.50;;;;;;;19.23;82.17;99321.30;130122;1264;107456;-77
2023/07/01 02:38:19;;;;;;;9.40;8.50;;;;;;;19.26;82.30;99324.05;130139;1273;107466;-76
2023/07/01 02:41:24;;;;;;;9.70;8.50;;;;;;;19.28;82.29;99324.27;130075;1263;107564;-77
2023/07/01 02:44:30;;;;;;;8.90;8.10;;;;;;;19.28;82.24;99321.85;130181;1258;107422;-77
2023/07/01 02:47:35;;;;;;;8.40;7.40;;;;;;;19.25;82.48;99323.98;130089;1264;107527;-77
2023/07/01 02:50:41;;;;;;;8.50;7.70;;;;;;;19.27;82.46;99320.45;130218;1259;106756;-77
2023/07/01 02:53:46;;;;;;;9.60;8.60;;;;;;;19.30;82.57;99321.19;130210;1264;106548;-77
2023/07/01 02:56:52;;;;;;;12.40;8.90;;;;;;;19.32;82.54;99320.41;130127;1264;107528;-77
2023/07/01 03:00:00;;;;;;;9.80;8.20;;;;;;;19.31;82.55;99320.73;130077;1263;107807;-77
2023/07/01 03:03:06;;;;;;;9.00;8.10;;;;;;;19.29;82.57;99316.17;130046;1262;106586;-76
2023/07/01 03:06:12;;;;;;;9.10;8.20;;;;;;;19.30;82.73;99313.13;130065;1264;107255;-79
2023/07/01 03:09:18;;;;;;;11.50;8.40;;;;;;;19.33;82.80;99317.48;130245;1263;106713;-78
2023/07/01 03:12:23;;;;;;;10.10;9.10;;;;;;;19.36;82.86;99326.84;130067;1264;107464;-79
2023/07/01 03:15:29;;;;;;;11.50;8.90;;;;;;;19.35;82.79;99323.15;130137;1274;107616;-80
2023/07/01 03:18:35;;;;;;;12.30;8.50;;;;;;;19.33;82.84;99317.69;130085;1264;107571;-77
2023/07/01 03:21:42;;;;;;;8.60;7.80;;;;;;;19.33;83.00;99313.20;130122;1264;107460;-76
2023/07/01 03:24:48;;;;;;;9.60;8.70;;;;;;;19.34;83.01;99313.00;130174;1259;107555;-76
2023/07/01 03:27:54;;;;;;;10.40;9.20;;;;;;;19.34;83.13;99315.17;130113;1263;107562;-77
2023/07/01 03:31:00;;;;;;;10.20;9.20;;;;;;;19.33;83.10;99320.63;130255;1258;107503;-77
2023/07/01 03:34:05;;;;;;;9.90;8.90;;;;;;;19.34;83.13;99320.13;130055;1259;107583;-77
2023/07/01 03:37:11;;;;;;;9.90;8.90;;;;;;;19.32;83.16;99322.81;130097;1263;107557;-76
2023/07/01 03:40:16;;;;;;;11.40;9.20;;;;;;;19.34;83.27;99319.76;130109;1259;107984;-76
2023/07/01 03:43:22;;;;;;;10.20;9.20;;;;;;;19.34;83.32;99320.08;130049;1263;107554;-76
2023/07/01 03:46:27;;;;;;;11.00;9.70;;;;;;;19.35;83.40;99324.07;130169;1264;107575;-76
2023/07/01 03:49:33;;;;;;;10.50;9.30;;;;;;;19.34;83.47;99322.20;130168;1264;107679;-79
2023/07/01 03:52:39;;;;;;;9.90;8.80;;;;;;;19.35;83.41;99326.02;130117;1261;107587;-79
2023/07/01 03:55:45;;;;;;;11.10;9.90;;;;;;;19.33;83.59;99320.16;130117;1262;107458;-79
2023/07/01 03:58:51;;;;;;;11.20;10.10;;;;;;;19.21;83.82;99320.33;130098;1264;107407;-79
2023/07/01 04:01:57;;;;;;;14.50;11.80;;;;;;;19.21;83.97;99316.96;130107;1264;107528;-79
2023/07/01 04:05:09;;;;;;;12.20;10.60;;;;;;;19.19;84.17;99316.48;130116;1264;108147;-79
2023/07/01 04:08:15;;;;;;;11.40;9.90;;;;;;;19.18;84.50;99323.29;130117;1264;107534;-79
2023/07/01 04:11:20;;;;;;;11.70;10.60;;;;;;;19.33;84.51;99325.52;130178;1264;107581;-79
2023/07/01 04:14:26;;;;;;;12.90;11.60;;;;;;;19.42;84.21;99320.27;130233;1264;107048;-79
2023/07/01 04:17:32;;;;;;;13.90;12.10;;;;;;;19.36;84.39;99320.14;130180;1264;107547;-79
2023/07/01 04:20:37;;;;;;;12.60;11.40;;;;;;;19.25;84.69;99321.19;130179;1258;107273;-79
2023/07/01 04:23:43;;;;;;;11.40;10.20;;;;;;;19.26;84.93;99324.72;130056;1259;107557;-79
2023/07/01 04:26:48;;;;;;;14.20;11.00;;;;;;;19.29;85.10;99324.40;130244;1264;107362;-78
2023/07/01 04:29:54;;;;;;;13.20;11.90;;;;;;;19.37;84.98;99321.15;130185;1258;107489;-78
2023/07/01 04:32:59;;;;;;;12.90;11.70;;;;;;;19.47;85.06;99313.09;130154;1264;107571;-79
2023/07/01 04:36:05;;;;;;;12.40;11.20;;;;;;;19.56;84.81;99312.12;130157;1264;107662;-78
2023/07/01 04:39:12;;;;;;;12.30;10.90;;;;;;;19.65;84.87;99318.01;130127;1264;107335;-78
2023/07/01 04:42:18;;;;;;;13.80;11.30;;;;;;;19.77;84.86;99315.92;130145;1264;107506;-78
2023/07/01 04:45:23;;;;;;;13.30;11.90;;;;;;;19.88;84.87;99324.45;130046;1272;107535;-78
2023/07/01 04:48:29;;;;;;;15.30;13.70;;;;;;;19.95;84.79;99321.96;130062;1265;107554;-79
2023/07/01 04:51:34;;;;;;;16.00;14.00;;;;;;;19.85;84.69;99314.05;130070;1264;107502;-79
2023/07/01 04:54:40;;;;;;;15.10;13.50;;;;;;;19.71;85.01;99310.40;130092;1259;107566;-78
2023/07/01 04:57:45;;;;;;;13.60;12.30;;;;;;;19.77;85.34;99316.08;130196;1274;107193;-79
2023/07/01 05:00:51;;;;;;;16.00;14.30;;;;;;;19.90;85.20;99320.71;130129;1262;107644;-78
2023/07/01 05:03:57;;;;;;;15.30;13.80;;;;;;;19.99;85.06;99321.73;130226;1264;107691;-78
2023/07/01 05:07:03;;;;;;;17.40;14.60;;;;;;;19.99;85.41;99316.61;130230;1264;107574;-80
2023/07/01 05:10:10;;;;;;;17.00;14.20;;;;;;;19.95;85.60;99319.15;130157;1263;107520;-78
2023/07/01 05:13:15;;;;;;;19.40;13.70;;;;;;;19.90;85.79;99315.55;130323;1263;107409;-78
2023/07/01 05:16:21;;;;;;;14.80;13.30;;;;;;;19.85;85.99;99320.00;130237;1264;107498;-78
2023/07/01 05:19:26;;;;;;;16.80;14.80;;;;;;;19.79;86.03;99321.29;130248;1264;106462;-78
2023/07/01 05:22:32;;;;;;;17.90;14.90;;;;;;;19.60;86.87;99323.42;130247;1264;107237;-78
2023/07/01 05:25:37;;;;;;;17.00;14.00;;;;;;;19.43;87.21;99325.00;130294;1264;107545;-78
2023/07/01 05:28:43;;;;;;;16.40;13.20;;;;;;;19.39;87.10;99324.98;130108;1272;107265;-79
2023/07/01 05:31:49;;;;;;;16.40;14.30;;;;;;;19.44;87.04;99323.25;130139;1264;107584;-78
2023/07/01 05:34:55;;;;;;;16.70;14.30;;;;;;;19.40;87.31;99320.14;130169;1264;107481;-78
2023/07/01 05:38:08;;;;;;;17.40;15.20;;;;;;;19.37;87.46;99318.16;130159;1265;107496;-78
2023/07/01 05:41:14;;;;;;;15.00;13.40;;;;;;;19.41;87.52;99319.19;130139;1259;107487;-79
2023/07/01 05:44:19;;;;;;;14.80;13.00;;;;;;;19.57;87.38;99317.94;130270;1261;107577;-78
2023/07/01 05:47:25;;;;;;;14.80;12.60;;;;;;;19.71;87.23;99320.80;130337;1263;107565;-78
2023/07/01 05:50:30;;;;;;;14.30;12.80;;;;;;;19.81;86.87;99319.96;130399;1264;107395;-78
2023/07/01 05:53:36;;;;;;;16.00;13.50;;;;;;;19.85;87.01;99325.80;130357;1261;107514;-80
2023/07/01 05:56:42;;;;;;;18.30;13.20;;;;;;;19.78;87.33;99329.64;130285;1264;107555;-78
2023/07/01 05:59:47;;;;;;;15.40;11.90;;;;;;;19.73;87.46;99329.27;130270;1265;107406;-78
2023/07/01 06:02:53;;;;;;;15.80;13.10;;;;;;;19.82;87.44;99332.81;130175;1261;108178;-78
2023/07/01 06:05:58;;;;;;;10.50;9.50;;;;;;;19.84;87.25;99338.35;130303;1264;107715;-77
2023/07/01 06:09:04;;;;;;;9.10;8.00;;;;;;;20.05;87.07;99340.17;130357;1258;107228;-77
2023/07/01 06:12:12;;;;;;;11.60;10.10;;;;;;;20.24;86.46;99345.17;130185;1261;107557;-77
2023/07/01 06:15:17;;;;;;;11.80;10.40;;;;;;;20.37;86.18;99341.25;130192;1263;107555;-76
2023/07/01 06:18:23;;;;;;;9.30;7.00;;;;;;;20.33;85.51;99348.01;130238;1261;107528;-77
2023/07/01 06:21:28;;;;;;;7.50;6.40;;;;;;;20.52;85.35;99344.70;130260;1259;107535;-77
2023/07/01 06:24:34;;;;;;;13.70;12.30;;;;;;;20.83;84.97;99341.26;130362;1261;107543;-77
2023/07/01 06:27:39;;;;;;;8.50;7.60;;;;;;;20.83;84.43;99343.74;130301;1264;109295;-77
2023/07/01 06:30:45;;;;;;;6.90;6.20;;;;;;;20.97;84.13;99343.46;130305;1257;107465;-78
2023/07/01 06:33:51;;;;;;;11.60;9.00;;;;;;;21.02;83.74;99346.20;130191;1265;107329;-78
2023/07/01 06:36:56;;;;;;;10.90;9.80;;;;;;;20.84;83.88;99350.66;130168;1264;107402;-76
2023/07/01 06:40:02;;;;;;;13.80;11.30;;;;;;;20.76;84.50;99346.92;130161;1264;108010;-77
2023/07/01 06:43:07;;;;;;;13.80;11.50;;;;;;;20.62;84.59;99353.80;130142;1263;107272;-77
2023/07/01 06:46:13;;;;;;;13.00;11.60;;;;;;;20.56;85.25;99354.00;130189;1258;107026;-80
2023/07/01 06:49:19;;;;;;;13.10;11.10;;;;;;;20.66;84.82;99354.93;130159;1264;107527;-78
2023/07/01 06:52:24;;;;;;;11.60;10.40;;;;;;;20.61;84.86;99354.34;130165;1259;108787;-76
2023/07/01 06:55:30;;;;;;;13.30;10.70;;;;;;;20.55;84.99;99356.73;130253;1264;108736;-75
2023/07/01 06:58:36;;;;;;;11.90;10.60;;;;;;;20.43;85.06;99359.96;130153;1262;107577;-76
2023/07/01 07:01:42;;;;;;;14.00;10.90;;;;;;;20.26;85.18;99362.65;130167;1263;107516;-76
2023/07/01 07:04:47;;;;;;;13.30;10.50;;;;;;;20.02;85.94;99365.98;130131;1259;107535;-76
2023/07/01 07:07:53;;;;;;;14.70;10.50;;;;;;;19.65;86.45;99369.27;130190;1264;107472;-76
2023/07/01 07:10:59;;;;;;;12.30;10.20;;;;;;;19.38;86.90;99366.45;130169;1264;107547;-76
2023/07/01 07:14:04;;;;;;;15.20;11.10;;;;;;;19.34;87.52;99371.71;130080;1265;107558;-76
2023/07/01 07:17:10;;;;;;;13.30;10.80;;;;;;;19.42;87.62;99370.52;130106;1259;106287;-75
2023/07/01 07:20:15;;;;;;;12.00;9.60;;;;;;;19.50;87.67;99372.54;130122;1264;108123;-77
2023/07/01 07:23:21;;;;;;;13.50;9.90;;;;;;;19.60;87.38;99371.81;130134;1264;107567;-76
2023/07/01 07:26:27;;;;;;;15.30;11.10;;;;;;;19.64;87.06;99372.11;130195;1259;106696;-76
2023/07/01 07:29:33;;;;;;;13.90;10.70;;;;;;;19.64;87.52;99374.27;130117;1259;108111;-76
2023/07/01 07:32:39;;;;;;;14.50;11.00;;;;;;;19.53;87.11;99370.55;130135;1261;107530;-75
2023/07/01 07:35:45;;;;;;;16.00;10.20;;;;;;;19.48;87.14;99367.29;130208;1265;107410;-76
2023/07/01 07:38:50;;;;;;;16.70;9.90;;;;;;;19.48;87.39;99363.63;130152;1263;106720;-76
2023/07/01 07:41:56;;;;;;;13.00;9.60;;;;;;;19.63;87.60;99359.91;130127;1264;107949;-76
2023/07/01 07:45:01;;;;;;;13.80;9.90;;;;;;;20.10;87.45;99354.08;130143;1259;107551;-75
2023/07/01 07:48:08;;;;;;;15.70;11.50;;;;;;;20.49;86.59;99349.02;130106;1258;106328;-75
2023/07/01 07:51:13;;;;;;;14.30;10.70;;;;;;;20.58;85.72;99346.02;130110;1258;105992;-76
2023/07/01 07:54:19;;;;;;;12.80;9.30;;;;;;;20.81;85.90;99340.84;130168;1263;107589;-79
2023/07/01 07:57:24;;;;;;;13.20;9.50;;;;;;;21.16;85.88;99337.65;130091;1258;107275;-76
2023/07/01 08:00:30;;;;;;;12.60;9.80;;;;;;;21.77;85.39;99338.27;130112;1264;106596;-76
2023/07/01 08:03:35;;;;;;;15.10;10.70;;;;;;;22.29;84.82;99336.23;130148;1264;107413;-76
2023/07/01 08:06:41;;;;;;;9.60;8.10;;;;;;;22.72;83.79;99338.15;130171;1263;107590;-76
2023/07/01 08:09:46;;;;;;;12.40;10.30;;;;;;;22.91;83.07;99325.89;130133;1264;107679;-76
2023/07/01 08:12:52;;;;;;;12.60;10.70;;;;;;;23.00;82.39;99326.52;130194;1264;107538;-76
2023/07/01 08:15:58;;;;;;;12.80;10.10;;;;;;;22.85;82.10;99325.95;130210;1262;107575;-76
2023/07/01 08:19:04;;;;;;;12.10;10.30;;;;;;;22.71;81.84;99327.55;130156;1264;105703;-76
2023/07/01 08:22:09;;;;;;;13.00;10.60;;;;;;;22.63;81.27;99326.70;130222;1264;107629;-76
2023/07/01 08:25:15;;;;;;;12.00;7.30;;;;;;;22.47;81.46;99328.19;130227;1264;107304;-77
2023/07/01 08:28:20;;;;;;;10.80;7.90;;;;;;;22.62;82.03;99332.79;130165;1262;107420;-75
2023/07/01 08:31:26;;;;;;;13.10;10.30;;;;;;;22.85;80.15;99328.01;130166;1264;107670;-76
2023/07/01 08:34:35;;;;;;;11.40;10.20;;;;;;;22.71;79.03;99333.41;130111;1263;107380;-76
2023/07/01 08:37:40;;;;;;;13.10;10.50;;;;;;;22.50;78.80;99334.86;130237;1265;107259;-76
2023/07/01 08:40:47;;;;;;;10.50;9.30;;;;;;;22.19;79.20;99332.23;130217;1264;107570;-76
2023/07/01 08:43:54;;;;;;;11.20;9.30;;;;;;;21.99;79.52;99335.98;130057;1264;107635;-77
2023/07/01 08:47:01;;;;;;;10.70;9.00;;;;;;;21.89;79.82;99339.77;130254;1264;107541;-76
2023/07/01 08:50:09;;;;;;;10.80;9.70;;;;;;;21.98;79.43;99339.99;130060;1259;107574;-75
2023/07/01 08:53:17;;;;;;;12.00;9.60;;;;;;;22.24;80.07;99335.94;130221;1259;107232;-76
2023/07/01 08:56:23;;;;;;;13.10;10.00;;;;;;;22.58;79.27;99340.60;130157;1264;108604;-74
2023/07/01 08:59:29;;;;;;;14.40;9.20;;;;;;;22.51;77.71;99337.98;130099;1263;107547;-75
2023/07/01 09:02:36;;;;;;;11.70;10.30;;;;;;;22.39;78.15;99338.27;130343;1264;106580;-76
2023/07/01 09:05:43;;;;;;;10.00;7.90;;;;;;;22.33;78.71;99339.71;130255;1264;107547;-73
2023/07/01 09:08:49;;;;;;;10.90;7.50;;;;;;;22.54;78.43;99338.89;130155;1269;107520;-76
2023/07/01 10:56:33;;;;;;;6.70;5.40;;;;;;;24.10;69.98;99256.79;129369;1276;107406;-75
2023/07/01 10:59:39;;;;;;;7.30;6.00;;;;;;;24.39;70.58;99258.63;129356;1276;107668;-76
2023/07/01 11:02:44;;;;;;;6.40;5.70;;;;;;;24.68;68.77;99248.95;129229;1270;107605;-76
2023/07/01 11:05:59;;;;;;;6.10;4.90;;;;;;;24.72;69.66;99258.99;129283;1275;107841;-76
2023/07/01 11:09:04;;;;;;;7.40;5.70;;;;;;;24.58;66.25;99259.40;129154;1276;106703;-76
2023/07/01 11:12:11;;;;;;;7.60;6.10;;;;;;;24.30;66.43;99257.84;129180;1275;107614;-76
2023/07/01 11:15:19;;;;;;;7.20;5.40;;;;;;;24.18;67.21;99253.16;128914;1270;108208;-76
2023/07/01 11:18:39;;;;;;;6.90;5.70;;;;;;;24.16;65.30;99254.69;129124;1274;105858;-76
2023/07/01 11:21:45;;;;;;;6.60;5.60;;;;;;;24.27;66.84;99246.55;129193;1270;107312;-77
2023/07/01 11:24:51;;;;;;;6.30;5.30;;;;;;;24.52;67.64;99240.63;129110;1275;107550;-76
2023/07/01 11:27:56;;;;;;;6.10;5.50;;;;;;;24.83;66.12;99235.76;129072;1270;107815;-78
2023/07/01 11:31:12;;;;;;;7.00;5.60;;;;;;;24.82;64.75;99235.16;129224;1276;106535;-78
2023/07/01 11:37:45;;;;;;;5.90;5.30;;;;;;;24.24;65.80;99238.95;130464;1267;106203;-78
2023/07/01 11:40:51;;;;;;;8.10;5.40;;;;;;;24.47;65.71;99225.44;129547;1270;107574;-78
2023/07/01 11:43:57;;;;;;;6.70;5.80;;;;;;;24.59;65.37;99221.45;129492;1270;107575;-78
2023/07/01 11:47:03;;;;;;;6.50;5.70;;;;;;;24.56;64.01;99219.80;129372;1270;107430;-78
2023/07/01 11:50:10;;;;;;;6.90;6.00;;;;;;;24.44;64.71;99218.50;129530;1270;106249;-78
2023/07/01 11:53:16;;;;;;;6.40;5.50;;;;;;;24.55;65.44;99217.89;129506;1270;107464;-78
2023/07/01 11:56:21;;;;;;;7.20;5.60;;;;;;;24.84;65.07;99222.50;129474;1271;107658;-78
2023/07/01 11:59:35;;;;;;;6.60;5.90;;;;;;;24.96;63.85;99220.83;129441;1271;107597;-78
2023/07/01 12:02:40;;;;;;;10.10;6.20;;;;;;;24.98;63.50;99220.33;129369;1270;107601;-78
2023/07/01 12:05:47;;;;;;;7.20;6.20;;;;;;;24.86;62.35;99219.34;129471;1270;107581;-78
2023/07/01 12:08:54;;;;;;;6.00;5.40;;;;;;;24.64;62.45;99214.90;129541;1270;107638;-75
2023/07/01 12:12:00;;;;;;;6.90;6.00;;;;;;;24.63;63.77;99213.65;129561;1269;108716;-75
2023/07/01 12:15:09;;;;;;;6.30;5.50;;;;;;;24.71;62.74;99215.13;129500;1270;107639;-75
2023/07/01 12:18:26;;;;;;;6.00;5.40;;;;;;;24.84;63.73;99213.07;129594;1270;107778;-77
2023/07/01 12:21:32;;;;;;;8.70;6.40;;;;;;;25.11;63.32;99203.71;129550;1267;107348;-79
2023/07/01 12:24:37;;;;;;;6.30;5.30;;;;;;;25.07;61.38;99197.12;129500;1271;106642;-78
2023/07/01 12:27:43;;;;;;;8.30;6.50;;;;;;;25.10;62.60;99198.25;129515;1271;108748;-78
2023/07/01 12:30:48;;;;;;;7.70;6.50;;;;;;;24.95;61.81;99191.55;129556;1270;107681;-77
2023/07/01 12:33:54;;;;;;;8.20;6.70;;;;;;;24.86;62.30;99190.08;129540;1279;107430;-77
2023/07/01 12:37:00;;;;;;;8.10;6.50;;;;;;;24.88;62.16;99189.05;129553;1268;107625;-77
2023/07/01 12:40:09;;;;;;;7.80;6.60;;;;;;;25.00;61.44;99182.86;129467;1268;117840;-78
2023/07/01 12:43:14;;;;;;;8.20;6.70;;;;;;;24.87;61.49;99176.27;129543;1267;107515;-77
2023/07/01 12:46:20;;;;;;;7.90;6.60;;;;;;;24.86;61.12;99180.66;129531;1267;107742;-77
2023/07/01 12:49:26;;;;;;;8.00;6.80;;;;;;;24.79;61.38;99184.18;129522;1267;107319;-77
2023/07/01 12:52:36;;;;;;;7.60;6.80;;;;;;;24.71;60.85;99180.92;129511;1271;107409;-75
2023/07/01 12:55:41;;;;;;;9.10;7.70;;;;;;;24.61;61.43;99183.98;129508;1270;107419;-75
2023/07/01 12:58:47;;;;;;;8.00;7.00;;;;;;;24.59;61.15;99172.89;129524;1271;107298;-75
2023/07/01 13:01:52;;;;;;;9.20;6.80;;;;;;;24.57;61.02;99167.27;129536;1269;107566;-76
2023/07/01 13:05:01;;;;;;;8.30;7.10;;;;;;;24.51;61.61;99165.53;129544;1270;107279;-77
2023/07/01 13:08:07;;;;;;;8.10;6.90;;;;;;;24.71;62.12;99158.93;129550;1269;107591;-78
2023/07/01 13:11:16;;;;;;;7.40;6.50;;;;;;;24.93;61.77;99162.02;129517;1270;107514;-77
2023/07/01 13:14:23;;;;;;;8.70;7.00;;;;;;;25.22;61.43;99169.75;129538;1268;107603;-78
2023/07/01 13:17:38;;;;;;;7.90;6.90;;;;;;;25.34;61.00;99168.53;129555;1270;107485;-77
2023/07/01 13:20:44;;;;;;;8.00;7.20;;;;;;;25.19;59.93;99171.00;129510;1270;107458;-78
2023/07/01 13:23:52;;;;;;;8.20;7.10;;;;;;;25.06;59.46;99167.52;129492;1268;107271;-77
2023/07/01 13:27:02;;;;;;;9.10;7.20;;;;;;;24.90;60.07;99160.23;129499;1270;107554;-77
2023/07/01 13:30:26;;;;;;;7.00;6.30;;;;;;;24.96;60.60;99157.98;129486;1270;107528;-77
2023/07/01 13:33:31;;;;;;;8.10;6.90;;;;;;;25.17;60.83;99155.23;129590;1270;107408;-77
2023/07/01 13:36:39;;;;;;;9.30;7.30;;;;;;;25.23;60.12;99155.72;129541;1270;108733;-75
2023/07/01 13:39:48;;;;;;;7.60;6.50;;;;;;;25.14;59.76;99151.25;129559;1270;107283;-78
2023/07/01 13:42:54;;;;;;;9.50;7.50;;;;;;;25.17;59.78;99141.80;129535;1267;107296;-78
2023/07/01 13:45:59;;;;;;;10.70;7.00;;;;;;;25.13;59.79;99134.59;129517;1268;107564;-77
2023/07/01 13:49:05;;;;;;;7.70;6.80;;;;;;;25.07;60.84;99134.82;129535;1270;107560;-77
2023/07/01 13:52:11;;;;;;;8.90;6.80;;;;;;;25.26;60.66;99134.04;129355;1270;107576;-80
2023/07/01 13:55:19;;;;;;;7.70;6.80;;;;;;;25.49;60.49;99126.05;129474;1274;106360;-76
2023/07/01 13:58:25;;;;;;;8.90;7.60;;;;;;;25.51;59.28;99127.20;129538;1270;107567;-76
2023/07/01 14:01:31;;;;;;;9.40;7.20;;;;;;;25.27;60.04;99120.66;129499;1269;106512;-78
2023/07/01 14:04:38;;;;;;;8.80;6.90;;;;;;;25.35;60.42;99114.30;129539;1269;107675;-77
2023/07/01 14:07:43;;;;;;;9.80;7.00;;;;;;;25.55;60.21;99114.82;129515;1270;107268;-77
2023/07/01 14:10:49;;;;;;;9.00;7.50;;;;;;;25.61;59.45;99114.68;129551;1270;106593;-76
2023/07/01 14:14:00;;;;;;;9.40;7.50;;;;;;;25.38;58.66;99109.92;130315;1270;107984;-78
2023/07/01 14:17:06;;;;;;;8.30;7.40;;;;;;;25.13;59.16;99110.41;129664;1267;107659;-78
2023/07/01 14:20:17;;;;;;;8.60;7.30;;;;;;;25.10;59.51;99108.34;129569;1270;107568;-78
2023/07/01 14:23:28;;;;;;;10.80;7.90;;;;;;;25.17;59.46;99106.30;129478;1269;107680;-78
2023/07/01 14:26:40;;;;;;;9.70;7.40;;;;;;;25.29;59.62;99103.19;129451;1267;108689;-78
2023/07/01 14:29:46;;;;;;;9.90;7.50;;;;;;;25.31;59.49;99100.11;129455;1267;106601;-78
2023/07/01 14:32:54;;;;;;;9.60;7.80;;;;;;;25.12;59.37;99097.20;129524;1270;107603;-78
2023/07/01 14:36:00;;;;;;;15.60;8.70;;;;;;;24.78;59.00;99094.59;129602;1270;106907;-78
2023/07/01 14:39:06;;;;;;;9.20;7.80;;;;;;;24.47;59.16;99101.05;129519;1268;107286;-78
2023/07/01 14:42:11;;;;;;;9.20;7.90;;;;;;;24.29;59.86;99103.64;129534;1267;107596;-78
2023/07/01 14:45:17;;;;;;;9.00;7.70;;;;;;;24.22;60.04;99100.76;129541;1271;105995;-78
2023/07/01 14:48:23;;;;;;;10.40;8.30;;;;;;;24.12;59.80;99100.90;129545;1270;107593;-77
2023/07/01 14:51:29;;;;;;;8.90;7.70;;;;;;;24.07;60.41;99099.44;129505;1270;107530;-77
2023/07/01 14:54:34;;;;;;;9.30;7.80;;;;;;;24.09;60.39;99096.65;129518;1267;107609;-77
2023/07/01 14:57:40;;;;;;;9.70;8.00;;;;;;;23.97;60.35;99100.48;129435;1268;107661;-77
2023/07/01 15:00:45;;;;;;;11.20;8.30;;;;;;;23.83;60.73;99097.47;129459;1267;107685;-77
2023/07/01 15:03:51;;;;;;;10.50;8.10;;;;;;;23.77;60.43;99096.58;129612;1267;107304;-76
2023/07/01 15:06:57;;;;;;;9.00;7.90;;;;;;;23.55;60.62;99093.70;129500;1270;106607;-77
2023/07/01 15:10:03;;;;;;;9.80;8.30;;;;;;;23.42;61.06;99087.13;129570;1270;107603;-77
2023/07/01 15:13:09;;;;;;;8.90;7.90;;;;;;;23.34;61.23;99083.29;129636;1270;106571;-76
2023/07/01 15:16:16;;;;;;;9.60;8.40;;;;;;;23.27;61.49;99080.20;129536;1267;107533;-76
2023/07/01 15:19:22;;;;;;;10.30;7.90;;;;;;;23.27;61.63;99069.36;129547;1270;106471;-77
2023/07/01 15:22:27;;;;;;;9.20;7.70;;;;;;;23.33;61.63;99067.27;129607;1281;107569;-76
2023/07/01 15:25:33;;;;;;;12.80;8.20;;;;;;;23.38;61.74;99062.50;129565;1269;107602;-76
2023/07/01 15:28:38;;;;;;;9.70;7.80;;;;;;;23.42;61.84;99064.91;129566;1267;107541;-76
2023/07/01 15:31:44;;;;;;;10.60;8.50;;;;;;;23.31;62.01;99073.74;129557;1267;107520;-77
2023/07/01 15:34:49;;;;;;;10.20;8.30;;;;;;;23.24;62.25;99071.31;129496;1271;107448;-76
2023/07/01 15:37:55;;;;;;;10.90;7.60;;;;;;;23.14;62.59;99068.39;129607;1268;107376;-76
2023/07/01 15:41:01;;;;;;;9.80;8.10;;;;;;;23.10;62.59;99067.51;129504;1267;107506;-76
2023/07/01 15:44:07;;;;;;;10.90;9.30;;;;;;;23.06;63.19;99070.48;129650;1267;107255;-76
2023/07/01 15:47:12;;;;;;;10.30;8.70;;;;;;;23.08;63.32;99070.70;129516;1267;107544;-76
2023/07/01 15:50:18;;;;;;;10.40;8.70;;;;;;;23.08;63.43;99072.02;129541;1270;107673;-76
2023/07/01 15:53:24;;;;;;;10.90;8.30;;;;;;;23.05;63.56;99065.67;129607;1270;107468;-77
2023/07/01 15:56:30;;;;;;;9.90;7.80;;;;;;;23.01;63.80;99067.30;129539;1268;107222;-76